createdAt,value
2022-10-25T00:02:23.429Z,3.03
2022-10-25T00:04:49.991Z,3.50
2022-10-25T00:07:16.391Z,4.53
2022-10-25T00:09:42.777Z,3.95
2022-10-25T00:12:09.241Z,3.28
2022-10-25T00:14:35.678Z,3.72
2022-10-25T00:17:02.313Z,3.80
2022-10-25T00:19:28.726Z,4.00
2022-10-25T00:21:55.119Z,3.90
2022-10-25T00:24:21.506Z,3.60
2022-10-25T00:26:47.873Z,4.05
2022-10-25T00:29:14.408Z,3.58
2022-10-25T00:31:40.878Z,4.03
2022-10-25T00:34:07.264Z,3.25
2022-10-25T00:36:33.676Z,3.70
2022-10-25T00:39:00.125Z,3.80
2022-10-25T00:41:34.819Z,3.15
2022-10-25T00:44:35.522Z,3.47
2022-10-25T00:47:15.938Z,3.83
2022-10-25T00:49:44.265Z,3.03
2022-10-25T00:52:11.100Z,3.55
2022-10-25T00:54:42.586Z,3.60
2022-10-25T00:57:15.666Z,3.45
2022-10-25T00:59:43.359Z,3.95
2022-10-25T01:02:10.137Z,3.45
2022-10-25T01:04:37.146Z,4.05
2022-10-25T01:07:03.787Z,3.30
2022-10-25T01:09:32.779Z,3.58
2022-10-25T01:11:59.188Z,4.55
2022-10-25T01:14:26.891Z,3.58
2022-10-25T01:17:18.149Z,3.75
2022-10-25T01:20:19.707Z,3.67
2022-10-25T01:23:19.380Z,3.50
2022-10-25T01:26:17.219Z,3.00
2022-10-25T01:29:09.692Z,3.15
2022-10-25T01:31:50.670Z,4.18
2022-10-25T01:37:11.627Z,3.95
2022-10-25T01:39:48.365Z,4.82
2022-10-25T01:42:23.875Z,3.67
2022-10-25T01:45:06.925Z,3.58
2022-10-25T01:47:39.787Z,3.60
2022-10-25T01:50:11.025Z,4.28
2022-10-25T01:52:37.567Z,3.47
2022-10-25T01:55:08.753Z,3.80
2022-10-25T01:57:47.460Z,3.10
2022-10-25T02:00:17.924Z,3.72
2022-10-25T02:03:10.089Z,2.92
2022-10-25T02:06:05.037Z,3.78
2022-10-25T02:08:37.030Z,3.67
2022-10-25T02:11:25.879Z,3.17
2022-10-25T02:14:07.412Z,3.20
2022-10-25T02:16:44.374Z,3.13
2022-10-25T02:19:16.232Z,3.42
2022-10-25T02:21:46.515Z,4.78
2022-10-25T02:24:17.446Z,2.95
2022-10-25T02:29:12.878Z,2.83
2022-10-25T02:31:39.818Z,3.45
2022-10-25T02:34:06.351Z,3.63
2022-10-25T02:36:32.731Z,3.58
2022-10-25T02:38:59.923Z,3.85
2022-10-25T02:41:26.739Z,3.35
2022-10-25T02:43:53.141Z,3.33
2022-10-25T02:46:22.164Z,3.08
2022-10-25T02:48:49.532Z,3.78
2022-10-25T02:51:16.519Z,2.83
2022-10-25T02:53:43.181Z,3.03
2022-10-25T02:56:19.263Z,3.30
2022-10-25T02:58:47.122Z,3.50
2022-10-25T03:01:15.046Z,2.78
2022-10-25T03:03:42.027Z,3.45
2022-10-25T03:06:10.093Z,2.65
2022-10-25T03:08:37.379Z,3.28
2022-10-25T03:11:05.394Z,3.05
2022-10-25T03:13:32.178Z,2.70
2022-10-25T03:15:58.616Z,2.97
2022-10-25T03:18:25.081Z,2.15
2022-10-25T03:20:51.933Z,3.20
2022-10-25T03:23:18.566Z,2.33
2022-10-25T03:25:44.950Z,2.88
2022-10-25T03:28:11.347Z,2.20
2022-10-25T03:30:37.783Z,3.33
2022-10-25T03:33:04.360Z,2.20
2022-10-25T03:35:30.771Z,2.60
2022-10-25T03:37:57.167Z,1.90
2022-10-25T03:40:23.732Z,2.72
2022-10-25T03:42:50.123Z,2.35
2022-10-25T03:45:16.751Z,2.70
2022-10-25T03:47:43.324Z,2.17
2022-10-25T03:50:09.772Z,1.70
2022-10-25T03:52:36.488Z,1.85
2022-10-25T03:55:03.359Z,1.98
2022-10-25T03:57:29.998Z,1.92
2022-10-25T03:59:57.769Z,2.03
2022-10-25T04:02:24.193Z,2.10
2022-10-25T04:04:50.576Z,2.63
2022-10-25T04:07:17.059Z,2.00
2022-10-25T04:09:43.461Z,1.80
2022-10-25T04:12:09.850Z,1.85
2022-10-25T04:14:36.247Z,1.67
2022-10-25T04:17:02.625Z,1.92
2022-10-25T04:19:28.999Z,1.40
2022-10-25T04:21:55.490Z,1.95
2022-10-25T04:24:22.758Z,1.80
2022-10-25T04:26:49.331Z,1.73
2022-10-25T04:29:18.427Z,2.15
2022-10-25T04:31:44.832Z,1.98
2022-10-25T04:34:11.260Z,1.40
2022-10-25T04:36:39.041Z,1.77
2022-10-25T04:39:05.627Z,1.52
2022-10-25T04:41:32.024Z,1.98
2022-10-25T04:43:58.450Z,1.75
2022-10-25T04:46:24.920Z,1.65
2022-10-25T04:48:51.343Z,1.83
2022-10-25T04:51:17.817Z,2.00
2022-10-25T04:53:44.227Z,1.48
2022-10-25T04:56:17.480Z,1.10
2022-10-25T04:58:43.898Z,1.92
2022-10-25T05:01:13.210Z,1.83
2022-10-25T05:03:40.609Z,2.00
2022-10-25T05:06:14.304Z,1.63
2022-10-25T05:08:43.031Z,1.50
2022-10-25T05:11:11.339Z,1.55
2022-10-25T05:13:39.540Z,1.60
2022-10-25T05:16:06.715Z,2.15
2022-10-25T05:18:34.573Z,1.92
2022-10-25T05:21:06.439Z,1.88
2022-10-25T05:23:34.655Z,2.20
2022-10-25T05:26:09.417Z,2.42
2022-10-25T05:28:37.381Z,2.08
2022-10-25T05:31:06.178Z,2.15
2022-10-25T05:34:28.070Z,2.28
2022-10-25T05:36:58.222Z,1.85
2022-10-25T05:39:25.013Z,2.22
2022-10-25T05:41:52.198Z,1.90
2022-10-25T05:44:18.924Z,1.75
2022-10-25T05:46:49.046Z,2.20
2022-10-25T05:49:15.429Z,2.40
2022-10-25T05:51:41.802Z,2.22
2022-10-25T05:54:13.123Z,2.10
2022-10-25T05:56:40.384Z,2.08
2022-10-25T05:59:11.845Z,2.15
2022-10-25T06:01:41.080Z,2.30
2022-10-25T06:04:08.111Z,2.03
2022-10-25T06:06:35.923Z,1.65
2022-10-25T06:09:02.765Z,2.47
2022-10-25T06:11:29.817Z,1.90
2022-10-25T06:13:56.297Z,1.75
2022-10-25T06:16:23.400Z,1.92
2022-10-25T06:18:50.270Z,1.92
2022-10-25T06:21:24.990Z,2.05
2022-10-25T06:23:52.310Z,1.48
2022-10-25T06:26:27.424Z,2.10
2022-10-25T06:28:56.348Z,2.20
2022-10-25T06:31:23.695Z,1.90
2022-10-25T06:33:50.660Z,1.70
2022-10-25T06:36:22.241Z,2.05
2022-10-25T06:38:49.223Z,1.90
2022-10-25T06:41:21.017Z,2.40
2022-10-25T06:43:48.421Z,1.42
2022-10-25T06:46:22.656Z,1.83
2022-10-25T06:48:49.908Z,1.40
2022-10-25T06:51:16.448Z,1.90
2022-10-25T06:53:42.911Z,1.63
2022-10-25T06:56:14.460Z,1.85
2022-10-25T06:58:41.659Z,1.95
2022-10-25T07:01:11.918Z,1.85
2022-10-25T07:03:39.033Z,2.25
2022-10-25T07:06:21.359Z,2.15
2022-10-25T07:08:55.193Z,1.73
2022-10-25T07:11:23.042Z,2.97
2022-10-25T07:13:49.471Z,2.15
2022-10-25T07:20:34.997Z,2.50
2022-10-25T07:23:02.541Z,2.65
2022-10-25T07:25:31.137Z,1.95
2022-10-25T07:27:57.662Z,1.90
2022-10-25T07:30:24.101Z,2.30
2022-10-25T07:32:50.550Z,2.33
2022-10-25T07:35:16.960Z,2.08
2022-10-25T07:37:43.346Z,2.17
2022-10-25T07:40:10.280Z,2.40
2022-10-25T07:42:36.706Z,2.33
2022-10-25T07:45:03.445Z,2.50
2022-10-25T07:47:29.830Z,2.50
2022-10-25T07:49:57.653Z,2.35
2022-10-25T07:52:24.047Z,1.50
2022-10-25T07:54:50.549Z,2.47
2022-10-25T07:57:17.244Z,2.60
2022-10-25T07:59:43.644Z,2.42
2022-10-25T08:02:14.431Z,2.78
2022-10-25T08:04:40.823Z,1.95
2022-10-25T08:07:07.245Z,1.85
2022-10-25T08:09:38.028Z,2.13
2022-10-25T08:12:04.921Z,2.50
2022-10-25T08:14:32.971Z,2.35
2022-10-25T08:17:01.551Z,2.10
2022-10-25T08:19:27.957Z,1.95
2022-10-25T08:21:54.416Z,2.08
2022-10-25T08:26:52.238Z,2.35
2022-10-25T08:29:18.610Z,3.03
2022-10-25T08:31:45.033Z,1.90
2022-10-25T08:36:42.869Z,2.72
2022-10-25T08:39:09.297Z,2.10
2022-10-25T08:41:50.887Z,2.55
2022-10-25T08:44:54.875Z,3.05
2022-10-25T08:47:29.542Z,2.55
2022-10-25T08:50:04.870Z,2.50
2022-10-25T08:52:38.039Z,2.05
2022-10-25T08:55:09.873Z,2.10
2022-10-25T08:57:41.274Z,2.38
2022-10-25T09:00:19.466Z,2.63
2022-10-25T09:02:51.570Z,2.83
2022-10-25T09:05:47.498Z,2.63
2022-10-25T09:08:30.850Z,2.60
2022-10-25T09:11:00.155Z,2.83
2022-10-25T09:14:12.049Z,3.00
2022-10-25T09:16:52.986Z,2.15
2022-10-25T09:19:39.428Z,2.50
2022-10-25T09:22:14.579Z,3.47
2022-10-25T09:24:57.665Z,2.63
2022-10-25T09:27:35.163Z,2.58
2022-10-25T09:30:08.960Z,2.05
2022-10-25T09:33:01.203Z,2.33
2022-10-25T09:35:42.222Z,2.47
2022-10-25T09:40:56.677Z,2.45
2022-10-25T09:43:31.799Z,2.70
2022-10-25T09:46:19.550Z,2.67
2022-10-25T09:48:55.877Z,1.90
2022-10-25T09:51:29.712Z,2.65
2022-10-25T09:53:57.236Z,2.58
2022-10-25T09:56:23.716Z,2.10
2022-10-25T09:58:50.105Z,2.53
2022-10-25T10:01:26.504Z,2.80
2022-10-25T10:03:55.786Z,2.90
2022-10-25T10:06:37.790Z,2.38
2022-10-25T10:09:06.941Z,2.30
2022-10-25T10:11:35.756Z,2.75
2022-10-25T10:14:25.899Z,2.50
2022-10-25T10:16:58.025Z,2.08
2022-10-25T10:19:26.827Z,2.60
2022-10-25T10:25:45.400Z,2.38
2022-10-25T10:28:14.790Z,2.88
2022-10-25T10:30:41.747Z,2.80
2022-10-25T10:33:17.294Z,2.65
2022-10-25T10:35:43.891Z,2.35
2022-10-25T10:38:29.064Z,2.80
2022-10-25T10:41:30.638Z,2.35
2022-10-25T10:44:11.497Z,2.20
2022-10-25T10:46:44.265Z,2.97
2022-10-25T10:49:10.838Z,2.75
2022-10-25T10:51:44.780Z,3.35
2022-10-25T10:54:24.484Z,3.70
2022-10-25T10:56:56.050Z,2.63
2022-10-25T10:59:34.098Z,2.03
2022-10-25T11:02:23.555Z,2.83
2022-10-25T11:04:52.480Z,2.15
2022-10-25T11:07:32.023Z,2.53
2022-10-25T11:10:16.794Z,2.50
2022-10-25T11:12:44.159Z,2.45
2022-10-25T11:15:14.713Z,3.20
2022-10-25T11:17:53.775Z,2.90
2022-10-25T11:20:30.155Z,2.58
2022-10-25T11:23:27.526Z,3.00
2022-10-25T11:26:05.614Z,2.90
2022-10-25T11:28:51.910Z,2.83
2022-10-25T11:31:48.834Z,2.42
2022-10-25T11:34:37.967Z,3.30
2022-10-25T11:37:21.365Z,2.20
2022-10-25T11:40:18.776Z,2.85
2022-10-25T11:42:57.082Z,3.13
2022-10-25T11:45:41.259Z,2.75
2022-10-25T11:48:26.127Z,2.95
2022-10-25T11:51:13.712Z,3.00
2022-10-25T11:53:54.021Z,2.83
2022-10-25T11:56:41.966Z,2.28
2022-10-25T11:59:36.338Z,2.42
2022-10-25T12:02:27.753Z,2.45
2022-10-25T12:05:13.546Z,2.90
2022-10-25T12:08:16.764Z,3.28
2022-10-25T12:10:49.465Z,3.08
2022-10-25T12:13:21.923Z,2.72
2022-10-25T12:15:51.056Z,2.75
2022-10-25T12:18:26.671Z,3.17
2022-10-25T12:20:54.139Z,2.33
2022-10-25T12:23:23.836Z,2.72
2022-10-25T12:25:54.609Z,3.67
2022-10-25T12:28:42.389Z,2.42
2022-10-25T12:31:21.713Z,3.17
2022-10-25T12:34:01.572Z,2.33
2022-10-25T12:36:35.013Z,3.08
2022-10-25T12:39:06.366Z,2.72
2022-10-25T12:41:36.268Z,2.45
2022-10-25T12:44:22.062Z,2.22
2022-10-25T12:47:09.107Z,2.92
2022-10-25T12:50:02.032Z,2.80
2022-10-25T12:52:36.625Z,2.88
2022-10-25T12:55:14.510Z,3.28
2022-10-25T12:58:09.012Z,2.97
2022-10-25T13:00:43.631Z,3.15
2022-10-25T13:03:37.755Z,3.25
2022-10-25T13:06:21.958Z,2.10
2022-10-25T13:08:49.100Z,3.08
2022-10-25T13:11:15.598Z,3.35
2022-10-25T13:13:51.043Z,2.80
2022-10-25T13:16:43.621Z,2.70
2022-10-25T13:19:35.865Z,2.90
2022-10-25T13:22:28.182Z,3.38
2022-10-25T13:24:57.360Z,3.33
2022-10-25T13:27:32.233Z,2.55
2022-10-25T13:30:22.012Z,3.42
2022-10-25T13:33:33.899Z,2.70
2022-10-25T13:36:02.930Z,2.80
2022-10-25T13:38:36.567Z,2.70
2022-10-25T13:41:10.430Z,2.22
2022-10-25T13:43:58.467Z,2.45
2022-10-25T13:46:34.744Z,2.28
2022-10-25T13:49:04.764Z,1.80
2022-10-25T13:51:32.618Z,1.93
2022-10-25T13:54:06.052Z,2.00
2022-10-25T13:56:36.740Z,2.22
2022-10-25T13:59:03.956Z,2.65
2022-10-25T14:01:31.420Z,2.20
2022-10-25T14:04:20.859Z,2.50
2022-10-25T14:06:47.323Z,2.30
2022-10-25T14:09:36.297Z,3.08
2022-10-25T14:12:02.961Z,2.75
2022-10-25T14:14:53.146Z,2.95
2022-10-25T14:17:35.973Z,3.13
2022-10-25T14:20:24.341Z,3.00
2022-10-25T14:22:54.135Z,3.60
2022-10-25T14:25:35.750Z,3.08
2022-10-25T14:28:22.426Z,3.10
2022-10-25T14:30:51.881Z,2.60
2022-10-25T14:33:24.226Z,3.55
2022-10-25T14:36:06.705Z,4.20
2022-10-25T14:38:38.392Z,3.85
2022-10-25T14:41:11.792Z,3.25
2022-10-25T14:43:39.286Z,6.50
2022-10-25T14:46:05.610Z,3.80
2022-10-25T14:48:33.528Z,3.88
2022-10-25T14:51:05.393Z,3.47
2022-10-25T14:53:32.098Z,3.22
2022-10-25T14:56:01.524Z,3.50
2022-10-25T14:58:33.494Z,3.80
2022-10-25T15:01:02.584Z,3.53
2022-10-25T15:03:30.406Z,2.78
2022-10-25T15:05:59.370Z,2.95
2022-10-25T15:08:28.231Z,4.03
2022-10-25T15:11:00.778Z,3.67
2022-10-25T15:13:39.640Z,3.92
2022-10-25T15:16:27.907Z,3.90
2022-10-25T15:19:18.390Z,4.20
2022-10-25T15:21:48.775Z,5.15
2022-10-25T15:24:21.149Z,4.63
2022-10-25T15:27:01.900Z,5.18
2022-10-25T15:29:41.043Z,4.70
2022-10-25T15:32:22.351Z,4.63
2022-10-25T15:34:54.169Z,5.00
2022-10-25T15:37:22.074Z,4.78
2022-10-25T15:39:50.957Z,5.43
2022-10-25T15:42:18.207Z,5.53
2022-10-25T15:44:44.594Z,4.88
2022-10-25T15:47:23.582Z,5.43
2022-10-25T15:49:52.379Z,4.90
2022-10-25T15:52:19.282Z,5.15
2022-10-25T15:54:45.679Z,5.30
2022-10-25T15:57:12.071Z,6.00
2022-10-25T15:59:38.468Z,5.35
2022-10-25T16:02:16.051Z,4.90
2022-10-25T16:04:42.494Z,4.93
2022-10-25T16:07:11.612Z,5.90
2022-10-25T16:09:38.025Z,6.20
2022-10-25T16:12:06.565Z,6.05
2022-10-25T16:14:34.204Z,5.43
2022-10-25T16:17:00.598Z,7.20
2022-10-25T16:19:31.248Z,5.82
2022-10-25T16:21:58.999Z,5.47
2022-10-25T16:24:25.427Z,5.95
2022-10-25T16:26:52.661Z,6.47
2022-10-25T16:29:24.582Z,5.97
2022-10-25T16:31:52.343Z,6.07
2022-10-25T16:34:19.653Z,5.93
2022-10-25T16:36:47.584Z,8.40
2022-10-25T16:39:14.046Z,5.85
2022-10-25T16:41:43.260Z,6.28
2022-10-25T16:44:12.032Z,6.20
2022-10-25T16:46:38.918Z,6.80
2022-10-25T16:49:05.348Z,6.38
2022-10-25T16:51:34.630Z,6.22
2022-10-25T16:54:01.899Z,6.38
2022-10-25T16:56:28.370Z,6.72
2022-10-25T16:58:54.770Z,7.45
2022-10-25T17:01:32.275Z,7.85
2022-10-25T17:03:59.593Z,7.22
2022-10-25T17:06:40.718Z,6.50
2022-10-25T17:09:07.508Z,6.93
2022-10-25T17:11:33.917Z,8.45
2022-10-25T17:14:00.313Z,7.40
2022-10-25T17:16:26.772Z,8.68
2022-10-25T17:18:53.164Z,7.88
2022-10-25T17:21:19.670Z,6.97
2022-10-25T17:23:46.099Z,8.07
2022-10-25T17:26:12.550Z,7.85
2022-10-25T17:28:43.115Z,7.03
2022-10-25T17:31:12.799Z,7.40
2022-10-25T17:33:39.321Z,7.35
2022-10-25T17:36:17.307Z,7.40
2022-10-25T17:38:44.598Z,7.10
2022-10-25T17:41:11.652Z,6.80
2022-10-25T17:43:39.865Z,6.95
2022-10-25T17:46:08.327Z,6.57
2022-10-25T17:48:35.096Z,7.70
2022-10-25T17:51:03.759Z,7.63
2022-10-25T17:53:30.236Z,7.97
2022-10-25T17:55:57.158Z,8.27
2022-10-25T17:58:23.548Z,8.73
2022-10-25T18:00:50.112Z,11.27
2022-10-25T18:03:16.567Z,9.35
2022-10-25T18:05:42.996Z,8.18
2022-10-25T18:08:09.400Z,7.85
2022-10-25T18:10:36.034Z,7.55
2022-10-25T18:13:02.456Z,7.65
2022-10-25T18:15:29.252Z,7.50
2022-10-25T18:17:55.689Z,7.65
2022-10-25T18:20:25.139Z,7.93
2022-10-25T18:22:52.982Z,7.65
2022-10-25T18:25:19.811Z,7.28
2022-10-25T18:27:46.538Z,7.18
2022-10-25T18:30:13.262Z,7.65
2022-10-25T18:32:39.687Z,6.93
2022-10-25T18:35:06.379Z,8.13
2022-10-25T18:37:32.767Z,7.75
2022-10-25T18:39:59.156Z,6.97
2022-10-25T18:42:25.563Z,7.55
2022-10-25T18:44:52.917Z,8.38
2022-10-25T18:47:19.316Z,8.15
2022-10-25T18:49:45.834Z,7.72
2022-10-25T18:52:12.296Z,8.57
2022-10-25T18:54:38.707Z,9.13
2022-10-25T18:57:05.223Z,9.02
2022-10-25T18:59:31.604Z,8.02
2022-10-25T19:01:58.122Z,7.50
2022-10-25T19:04:24.633Z,7.82
2022-10-25T19:06:51.099Z,7.65
2022-10-25T19:09:17.807Z,9.70
2022-10-25T19:11:44.196Z,7.35
2022-10-25T19:14:10.591Z,8.15
2022-10-25T19:16:40.560Z,7.68
2022-10-25T19:19:07.337Z,6.78
2022-10-25T19:21:34.648Z,7.40
2022-10-25T19:24:01.078Z,7.88
2022-10-25T19:26:27.480Z,7.18
2022-10-25T19:28:59.015Z,6.97
2022-10-25T19:31:27.345Z,6.25
2022-10-25T19:33:56.139Z,6.63
2022-10-25T19:36:22.552Z,10.57
2022-10-25T19:38:49.092Z,9.70
2022-10-25T19:41:22.827Z,8.55
2022-10-25T19:43:49.934Z,8.02
2022-10-25T19:46:16.659Z,9.23
2022-10-25T19:48:43.341Z,9.27
2022-10-25T19:51:18.606Z,9.40
2022-10-25T19:53:45.816Z,8.88
2022-10-25T19:56:15.389Z,9.38
2022-10-25T19:58:41.930Z,7.55
2022-10-25T20:01:17.497Z,7.43
2022-10-25T20:03:49.211Z,7.13
2022-10-25T20:06:21.619Z,5.90
2022-10-25T20:08:51.175Z,5.60
2022-10-25T20:11:18.217Z,5.85
2022-10-25T20:13:44.618Z,5.38
2022-10-25T20:16:12.403Z,5.30
2022-10-25T20:18:39.990Z,4.50
2022-10-25T20:21:10.462Z,3.92
2022-10-25T20:23:37.790Z,4.05
2022-10-25T20:26:12.492Z,3.72
2022-10-25T20:28:38.898Z,3.78
2022-10-25T20:31:06.048Z,3.63
2022-10-25T20:33:32.499Z,3.50
2022-10-25T20:36:03.999Z,4.13
2022-10-25T20:38:31.325Z,3.65
2022-10-25T20:41:10.159Z,4.07
2022-10-25T20:43:37.389Z,4.15
2022-10-25T20:46:04.720Z,5.22
2022-10-25T20:48:31.195Z,3.90
2022-10-25T20:50:57.591Z,4.22
2022-10-25T20:53:23.974Z,4.15
2022-10-25T20:55:50.403Z,3.97
2022-10-25T20:58:19.089Z,4.70
2022-10-25T21:00:46.935Z,4.25
2022-10-25T21:03:14.603Z,5.07
2022-10-25T21:05:45.136Z,4.80
2022-10-25T21:08:15.391Z,3.67
2022-10-25T21:10:42.990Z,4.30
2022-10-25T21:13:10.554Z,4.50
2022-10-25T21:15:37.006Z,4.28
2022-10-25T21:18:03.674Z,4.10
2022-10-25T21:20:30.684Z,3.90
2022-10-25T21:22:57.094Z,4.28
2022-10-25T21:25:23.645Z,4.63
2022-10-25T21:27:53.658Z,4.38
2022-10-25T21:30:20.161Z,3.10
2022-10-25T21:32:46.566Z,4.07
2022-10-25T21:35:13.023Z,3.90
2022-10-25T21:37:39.423Z,4.30
2022-10-25T21:40:06.539Z,4.55
2022-10-25T21:42:33.514Z,4.85
2022-10-25T21:44:59.942Z,4.38
2022-10-25T21:47:26.616Z,4.80
2022-10-25T21:49:53.211Z,4.43
2022-10-25T21:52:19.614Z,4.63
2022-10-25T21:54:45.982Z,5.35
2022-10-25T21:57:12.362Z,4.25
2022-10-25T21:59:38.757Z,4.75
2022-10-25T22:02:05.283Z,4.40
2022-10-25T22:04:31.803Z,4.18
2022-10-25T22:06:58.381Z,3.70
2022-10-25T22:09:24.756Z,4.10
2022-10-25T22:11:51.866Z,3.60
2022-10-25T22:14:19.210Z,3.83
2022-10-25T22:16:45.603Z,3.28
2022-10-25T22:19:17.407Z,3.55
2022-10-25T22:21:45.113Z,3.72
2022-10-25T22:24:12.709Z,3.15
2022-10-25T22:26:41.847Z,3.25
2022-10-25T22:29:10.772Z,3.35
2022-10-25T22:31:38.034Z,3.65
2022-10-25T22:34:06.694Z,4.53
2022-10-25T22:36:35.564Z,4.32
2022-10-25T22:39:02.567Z,3.88
2022-10-25T22:41:29.926Z,3.60
2022-10-25T22:43:57.175Z,3.53
2022-10-25T22:46:29.285Z,3.95
2022-10-25T22:48:57.868Z,3.60
2022-10-25T22:51:26.006Z,4.00
2022-10-25T22:53:52.447Z,4.03
2022-10-25T22:56:21.114Z,3.78
2022-10-25T22:58:50.571Z,3.58
2022-10-25T23:01:19.919Z,3.10
2022-10-25T23:03:54.539Z,3.08
2022-10-25T23:06:26.114Z,3.70
2022-10-25T23:08:58.326Z,3.13
2022-10-25T23:11:27.172Z,3.08
2022-10-25T23:13:53.634Z,3.40
2022-10-25T23:16:20.469Z,2.78
2022-10-25T23:18:46.850Z,3.03
2022-10-25T23:21:24.179Z,3.08
2022-10-25T23:23:51.970Z,3.65
2022-10-25T23:26:22.680Z,3.40
2022-10-25T23:28:49.679Z,3.03
2022-10-25T23:31:16.427Z,3.60
2022-10-25T23:33:43.087Z,3.22
2022-10-25T23:36:15.427Z,3.42
2022-10-25T23:38:43.315Z,2.90
2022-10-25T23:41:09.750Z,3.80
2022-10-25T23:43:36.344Z,2.90
2022-10-25T23:46:03.388Z,3.60
2022-10-25T23:48:30.905Z,3.83
2022-10-25T23:53:31.555Z,3.78
2022-10-25T23:55:58.278Z,4.45
2022-10-25T23:58:24.695Z,4.30
